Time,TemperatureF,DewpointF,PressureIn,WindDirection,WindDirectionDegrees,WindSpeedMPH,WindSpeedGustMPH,Humidity,HourlyPrecipIn,Conditions,Clouds,dailyrainin,SoftwareType,DateUTC
2013-08-28 00:00:00,76.0,74.2,29.95,WSW,254,0.0,0.0,94,0.00,,BKN055,0.00,VWS V14.00,2013-08-28 04:00:00,
2013-08-28 00:01:00,73.8,72.6,29.95,WSW,254,0.0,0.0,96,0.00,,BKN055,0.00,VWS V14.00,2013-08-28 04:01:00,
2013-08-28 00:10:00,75.5,73.7,29.95,WSW,254,0.0,2.0,94,0.00,,BKN055,0.00,VWS V14.00,2013-08-28 04:10:00,
2013-08-28 00:11:00,73.6,72.7,29.95,WSW,254,0.0,0.0,97,0.00,,BKN055,0.00,VWS V14.00,2013-08-28 04:11:00,
2013-08-28 00:20:00,75.3,73.8,29.95,WSW,254,0.0,1.0,95,0.00,,BKN055,0.00,VWS V14.00,2013-08-28 04:20:00,
2013-08-28 00:21:00,73.6,72.7,29.95,WSW,254,0.0,0.0,97,0.00,,BKN055,0.00,VWS V14.00,2013-08-28 04:21:00,
2013-08-28 00:30:00,74.9,73.1,29.95,WSW,254,0.0,0.0,94,0.00,,BKN055,0.00,VWS V14.00,2013-08-28 04:30:00,
2013-08-28 00:31:00,73.9,73.3,29.95,WSW,252,0.0,1.0,98,0.00,,BKN055,0.00,VWS V14.00,2013-08-28 04:31:00,
2013-08-28 00:40:00,74.5,73.0,29.96,WSW,254,0.0,0.0,95,0.00,,BKN055,0.00,VWS V14.00,2013-08-28 04:40:00,
2013-08-28 00:41:00,74.2,73.6,29.95,WSW,252,0.0,0.0,98,0.00,,BKN055,0.00,VWS V14.00,2013-08-28 04:41:00,
2013-08-28 00:50:00,74.1,72.6,29.95,WSW,254,0.0,0.0,95,0.00,,BKN055,0.00,VWS V14.00,2013-08-28 04:50:00,
2013-08-28 00:51:00,74.4,73.8,29.94,WSW,252,0.0,0.0,98,0.00,,BKN055,0.00,VWS V14.00,2013-08-28 04:51:00,
2013-08-28 01:00:00,73.8,72.6,29.95,WSW,254,0.0,0.0,96,0.00,,BKN055,0.00,VWS V14.00,2013-08-28 05:00:00,
2013-08-28 01:01:00,74.3,73.4,29.94,WSW,252,0.0,1.0,97,0.00,,BKN055,0.00,VWS V14.00,2013-08-28 05:01:00,
2013-08-28 01:10:00,73.6,72.7,29.95,WSW,254,0.0,0.0,97,0.00,,BKN055,0.00,VWS V14.00,2013-08-28 05:10:00,
2013-08-28 01:11:00,74.9,74.3,29.94,WSW,252,0.0,2.0,98,0.00,,BKN055,0.00,VWS V14.00,2013-08-28 05:11:00,
2013-08-28 01:20:00,73.6,72.7,29.95,WSW,254,0.0,0.0,97,0.00,,BKN055,0.00,VWS V14.00,2013-08-28 05:20:00,
2013-08-28 01:21:00,75.3,74.7,29.94,WSW,249,0.0,1.0,98,0.00,,BKN055,0.00,VWS V14.00,2013-08-28 05:21:00,
2013-08-28 01:30:00,73.9,73.3,29.95,WSW,252,0.0,1.0,98,0.00,,BKN055,0.00,VWS V14.00,2013-08-28 05:30:00,
2013-08-28 01:31:00,75.5,74.9,29.93,WSW,249,0.0,0.0,98,0.00,,BKN055,0.00,VWS V14.00,2013-08-28 05:31:00,
2013-08-28 01:40:00,74.2,73.6,29.95,WSW,252,0.0,0.0,98,0.00,,BKN055,0.00,VWS V14.00,2013-08-28 05:40:00,
2013-08-28 01:41:00,75.6,75.0,29.93,WSW,249,0.0,0.0,98,0.00,,BKN055,0.00,VWS V14.00,2013-08-28 05:41:00,
2013-08-28 01:50:00,74.4,73.8,29.94,WSW,252,0.0,0.0,98,0.00,,BKN055,0.00,VWS V14.00,2013-08-28 05:50:00,
2013-08-28 01:51:00,75.6,75.0,29.94,WSW,249,0.0,1.0,98,0.00,,BKN055,0.00,VWS V14.00,2013-08-28 05:51:00,
2013-08-28 02:00:00,74.3,73.4,29.94,WSW,252,0.0,1.0,97,0.00,,BKN055,0.00,VWS V14.00,2013-08-28 06:00:00,
2013-08-28 02:01:00,75.5,74.6,29.94,SW,229,0.0,2.0,97,0.00,,BKN055,0.00,VWS V14.00,2013-08-28 06:01:00,
2013-08-28 02:10:00,74.9,74.3,29.94,WSW,252,0.0,2.0,98,0.00,,BKN055,0.00,VWS V14.00,2013-08-28 06:10:00,
2013-08-28 02:11:00,75.4,74.5,29.93,SW,230,0.0,0.0,97,0.00,,BKN055,0.00,VWS V14.00,2013-08-28 06:11:00,
2013-08-28 02:20:00,75.3,74.7,29.94,WSW,249,0.0,1.0,98,0.00,,BKN055,0.00,VWS V14.00,2013-08-28 06:20:00,
2013-08-28 02:21:00,75.4,74.5,29.93,SW,230,0.0,1.0,97,0.00,,BKN055,0.00,VWS V14.00,2013-08-28 06:21:00,
2013-08-28 02:30:00,75.5,74.9,29.93,WSW,249,0.0,0.0,98,0.00,,BKN055,0.00,VWS V14.00,2013-08-28 06:30:00,
2013-08-28 02:31:00,75.4,74.5,29.93,SW,230,0.0,1.0,97,0.00,,BKN055,0.00,VWS V14.00,2013-08-28 06:31:00,
2013-08-28 02:40:00,75.6,75.0,29.93,WSW,249,0.0,0.0,98,0.00,,BKN055,0.00,VWS V14.00,2013-08-28 06:40:00,
2013-08-28 02:41:00,75.4,74.5,29.93,SW,229,0.0,0.0,97,0.00,,BKN055,0.00,VWS V14.00,2013-08-28 06:41:00,
2013-08-28 02:50:00,75.6,75.0,29.94,WSW,249,0.0,1.0,98,0.00,,BKN055,0.00,VWS V14.00,2013-08-28 06:50:00,
2013-08-28 02:51:00,75.5,74.9,29.92,SW,229,0.0,2.0,98,0.00,,BKN055,0.00,VWS V14.00,2013-08-28 06:51:00,
2013-08-28 03:00:00,75.5,74.6,29.94,SW,229,0.0,2.0,97,0.00,,BKN055,0.00,VWS V14.00,2013-08-28 07:00:00,
2013-08-28 03:01:00,75.6,75.0,29.92,SW,231,0.0,3.0,98,0.00,,BKN055,0.00,VWS V14.00,2013-08-28 07:01:00,
2013-08-28 03:10:00,75.4,74.5,29.93,SW,230,0.0,0.0,97,0.00,,BKN055,0.00,VWS V14.00,2013-08-28 07:10:00,
2013-08-28 03:11:00,75.6,74.7,29.92,WSW,240,2.0,3.0,97,0.00,,BKN055,0.00,VWS V14.00,2013-08-28 07:11:00,
2013-08-28 03:20:00,75.4,74.5,29.93,SW,230,0.0,1.0,97,0.00,,BKN055,0.00,VWS V14.00,2013-08-28 07:20:00,
2013-08-28 03:21:00,75.7,75.1,29.93,West,262,2.0,4.0,98,0.00,,BKN055,0.00,VWS V14.00,2013-08-28 07:21:00,
2013-08-28 03:30:00,75.4,74.5,29.93,SW,230,0.0,1.0,97,0.00,,BKN055,0.00,VWS V14.00,2013-08-28 07:30:00,
2013-08-28 03:31:00,75.7,74.8,29.93,West,261,0.0,2.0,97,0.00,,BKN055,0.00,VWS V14.00,2013-08-28 07:31:00,
2013-08-28 03:40:00,75.4,74.5,29.93,SW,229,0.0,0.0,97,0.00,,BKN055,0.00,VWS V14.00,2013-08-28 07:40:00,
2013-08-28 03:41:00,75.5,74.6,29.93,West,261,0.0,1.0,97,0.00,,BKN055,0.00,VWS V14.00,2013-08-28 07:41:00,
2013-08-28 03:50:00,75.5,74.9,29.92,SW,229,0.0,2.0,98,0.00,,BKN055,0.00,VWS V14.00,2013-08-28 07:50:00,
2013-08-28 03:51:00,75.5,74.6,29.93,WSW,242,0.0,2.0,97,0.00,,BKN055,0.00,VWS V14.00,2013-08-28 07:51:00,
2013-08-28 04:00:00,75.6,75.0,29.92,SW,231,0.0,3.0,98,0.00,,BKN055,0.00,VWS V14.00,2013-08-28 08:00:00,
2013-08-28 04:01:00,75.3,74.4,29.93,WSW,242,0.0,0.0,97,0.00,,BKN055,0.00,VWS V14.00,2013-08-28 08:01:00,
2013-08-28 04:10:00,75.6,74.7,29.92,WSW,240,2.0,3.0,97,0.00,,BKN055,0.00,VWS V14.00,2013-08-28 08:10:00,
2013-08-28 04:11:00,75.4,74.5,29.93,WSW,242,0.0,1.0,97,0.00,,BKN055,0.00,VWS V14.00,2013-08-28 08:11:00,
2013-08-28 04:20:00,75.7,75.1,29.93,West,262,2.0,4.0,98,0.00,,BKN055,0.00,VWS V14.00,2013-08-28 08:20:00,
2013-08-28 04:21:00,75.5,74.6,29.93,WSW,257,0.0,4.0,97,0.00,,BKN055,0.00,VWS V14.00,2013-08-28 08:21:00,
2013-08-28 04:30:00,75.7,74.8,29.93,West,261,0.0,2.0,97,0.00,,BKN055,0.00,VWS V14.00,2013-08-28 08:30:00,
2013-08-28 04:31:00,75.4,74.5,29.93,WSW,254,0.0,3.0,97,0.00,,BKN055,0.00,VWS V14.00,2013-08-28 08:31:00,
2013-08-28 04:40:00,75.5,74.6,29.93,West,261,0.0,1.0,97,0.00,,BKN055,0.00,VWS V14.00,2013-08-28 08:40:00,
2013-08-28 04:41:00,75.4,74.5,29.93,SW,229,2.0,3.0,97,0.00,,BKN055,0.00,VWS V14.00,2013-08-28 08:41:00,
2013-08-28 04:50:00,75.5,74.6,29.93,WSW,242,0.0,2.0,97,0.00,,BKN055,0.00,VWS V14.00,2013-08-28 08:50:00,
2013-08-28 04:51:00,75.5,74.3,29.93,WSW,240,0.0,4.0,96,0.00,,BKN055,0.00,VWS V14.00,2013-08-28 08:51:00,
2013-08-28 05:00:00,75.3,74.4,29.93,WSW,242,0.0,0.0,97,0.00,,BKN055,0.00,VWS V14.00,2013-08-28 09:00:00,
2013-08-28 05:01:00,75.4,74.2,29.93,SSW,200,0.0,2.0,96,0.00,,BKN055,0.00,VWS V14.00,2013-08-28 09:01:00,
2013-08-28 05:10:00,75.4,74.5,29.93,WSW,242,0.0,1.0,97,0.00,,BKN055,0.00,VWS V14.00,2013-08-28 09:10:00,
2013-08-28 05:11:00,75.3,74.4,29.93,SSW,206,0.0,4.0,97,0.00,,BKN055,0.00,VWS V14.00,2013-08-28 09:11:00,
2013-08-28 05:20:00,75.5,74.6,29.93,WSW,257,0.0,4.0,97,0.00,,BKN055,0.00,VWS V14.00,2013-08-28 09:20:00,
2013-08-28 05:21:00,75.3,74.4,29.93,SW,232,2.0,3.0,97,0.00,,BKN055,0.00,VWS V14.00,2013-08-28 09:21:00,
2013-08-28 05:30:00,75.4,74.5,29.93,WSW,254,0.0,3.0,97,0.00,,BKN055,0.00,VWS V14.00,2013-08-28 09:30:00,
2013-08-28 05:31:00,75.2,74.3,29.93,SW,232,0.0,2.0,97,0.00,,BKN055,0.00,VWS V14.00,2013-08-28 09:31:00,
2013-08-28 05:40:00,75.4,74.5,29.93,SW,229,2.0,3.0,97,0.00,,BKN055,0.00,VWS V14.00,2013-08-28 09:40:00,
2013-08-28 05:41:00,75.2,74.3,29.93,WSW,247,0.0,5.0,97,0.00,,BKN055,0.00,VWS V14.00,2013-08-28 09:41:00,
2013-08-28 05:50:00,75.5,74.3,29.93,WSW,240,0.0,4.0,96,0.00,,BKN055,0.00,VWS V14.00,2013-08-28 09:50:00,
2013-08-28 05:51:00,75.1,74.2,29.93,WSW,257,0.0,3.0,97,0.00,,BKN055,0.00,VWS V14.00,2013-08-28 09:51:00,
2013-08-28 06:00:00,75.4,74.2,29.93,SSW,200,0.0,2.0,96,0.00,,BKN055,0.00,VWS V14.00,2013-08-28 10:00:00,
2013-08-28 06:01:00,75.0,74.1,29.93,WSW,249,0.0,3.0,97,0.00,,BKN055,0.00,VWS V14.00,2013-08-28 10:01:00,
2013-08-28 06:10:00,75.3,74.4,29.93,SSW,206,0.0,4.0,97,0.00,,BKN055,0.00,VWS V14.00,2013-08-28 10:10:00,
2013-08-28 06:11:00,74.8,73.9,29.93,WSW,251,0.0,2.0,97,0.00,,BKN055,0.00,VWS V14.00,2013-08-28 10:11:00,
2013-08-28 06:20:00,75.3,74.4,29.93,SW,232,2.0,3.0,97,0.00,,BKN055,0.00,VWS V14.00,2013-08-28 10:20:00,
2013-08-28 06:21:00,74.8,73.9,29.93,SW,225,0.0,1.0,97,0.00,,BKN055,0.00,VWS V14.00,2013-08-28 10:21:00,
2013-08-28 06:30:00,75.2,74.3,29.93,SW,232,0.0,2.0,97,0.00,,BKN055,0.00,VWS V14.00,2013-08-28 10:30:00,
2013-08-28 06:31:00,74.6,73.7,29.93,South,178,0.0,3.0,97,0.00,,BKN055,0.00,VWS V14.00,2013-08-28 10:31:00,
2013-08-28 06:40:00,75.2,74.3,29.93,WSW,247,0.0,5.0,97,0.00,,BKN055,0.00,VWS V14.00,2013-08-28 10:40:00,
2013-08-28 06:41:00,74.7,73.8,29.93,SW,232,0.0,4.0,97,0.00,,BKN055,0.00,VWS V14.00,2013-08-28 10:41:00,
2013-08-28 06:50:00,75.1,74.2,29.93,WSW,257,0.0,3.0,97,0.00,,BKN055,0.00,VWS V14.00,2013-08-28 10:50:00,
2013-08-28 06:51:00,74.6,73.7,29.93,SE,143,0.0,4.0,97,0.00,,BKN055,0.00,VWS V14.00,2013-08-28 10:51:00,
2013-08-28 07:00:00,75.0,74.1,29.93,WSW,249,0.0,3.0,97,0.00,,BKN055,0.00,VWS V14.00,2013-08-28 11:00:00,
2013-08-28 07:01:00,74.6,73.7,29.93,WSW,253,0.0,1.0,97,0.00,,BKN055,0.00,VWS V14.00,2013-08-28 11:01:00,
2013-08-28 07:10:00,74.8,73.9,29.93,WSW,251,0.0,2.0,97,0.00,,BKN055,0.00,VWS V14.00,2013-08-28 11:10:00,
2013-08-28 07:11:00,74.6,73.7,29.93,South,179,0.0,3.0,97,0.00,,BKN055,0.00,VWS V14.00,2013-08-28 11:11:00,
2013-08-28 07:20:00,74.8,73.9,29.93,SW,225,0.0,1.0,97,0.00,,BKN055,0.00,VWS V14.00,2013-08-28 11:20:00,
2013-08-28 07:21:00,74.6,73.7,29.94,SSW,213,0.0,2.0,97,0.00,,BKN055,0.00,VWS V14.00,2013-08-28 11:21:00,
2013-08-28 07:30:00,74.6,73.7,29.93,South,178,0.0,3.0,97,0.00,,BKN055,0.00,VWS V14.00,2013-08-28 11:30:00,
2013-08-28 07:31:00,74.5,73.6,29.93,SW,215,0.0,2.0,97,0.00,,BKN055,0.00,VWS V14.00,2013-08-28 11:31:00,
2013-08-28 07:40:00,74.7,73.8,29.93,SW,232,0.0,4.0,97,0.00,,BKN055,0.00,VWS V14.00,2013-08-28 11:40:00,
2013-08-28 07:41:00,74.6,73.7,29.93,South,188,0.0,5.0,97,0.00,,BKN055,0.00,VWS V14.00,2013-08-28 11:41:00,
2013-08-28 07:50:00,74.6,73.7,29.93,SE,143,0.0,4.0,97,0.00,,BKN055,0.00,VWS V14.00,2013-08-28 11:50:00,
2013-08-28 07:51:00,74.7,73.8,29.93,SW,236,0.0,4.0,97,0.00,,BKN055,0.00,VWS V14.00,2013-08-28 11:51:00,
2013-08-28 08:00:00,74.6,73.7,29.93,WSW,253,0.0,1.0,97,0.00,,BKN055,0.00,VWS V14.00,2013-08-28 12:00:00,
2013-08-28 08:01:00,74.8,73.9,29.93,SW,217,2.0,4.0,97,0.00,,BKN055,0.00,VWS V14.00,2013-08-28 12:01:00,
2013-08-28 08:10:00,74.6,73.7,29.93,South,179,0.0,3.0,97,0.00,,BKN055,0.00,VWS V14.00,2013-08-28 12:10:00,
2013-08-28 08:11:00,74.9,73.7,29.92,West,268,0.0,3.0,96,0.00,,BKN055,0.00,VWS V14.00,2013-08-28 12:11:00,
2013-08-28 08:20:00,74.6,73.7,29.94,SSW,213,0.0,2.0,97,0.00,,BKN055,0.00,VWS V14.00,2013-08-28 12:20:00,
2013-08-28 08:21:00,75.2,74.0,29.92,SW,221,6.0,9.0,96,0.00,,BKN055,0.00,VWS V14.00,2013-08-28 12:21:00,
2013-08-28 08:30:00,74.5,73.6,29.93,SW,215,0.0,2.0,97,0.00,,BKN055,0.00,VWS V14.00,2013-08-28 12:30:00,
2013-08-28 08:31:00,75.5,74.3,29.93,WSW,258,0.0,6.0,96,0.00,,BKN055,0.00,VWS V14.00,2013-08-28 12:31:00,
2013-08-28 08:40:00,74.6,73.7,29.93,South,188,0.0,5.0,97,0.00,,BKN055,0.00,VWS V14.00,2013-08-28 12:40:00,
2013-08-28 08:41:00,75.9,74.7,29.92,WSW,248,0.0,5.0,96,0.00,,BKN055,0.00,VWS V14.00,2013-08-28 12:41:00,
2013-08-28 08:50:00,74.7,73.8,29.93,SW,236,0.0,4.0,97,0.00,,BKN055,0.00,VWS V14.00,2013-08-28 12:50:00,
2013-08-28 08:51:00,76.3,74.4,29.92,South,169,0.0,10.0,94,0.00,,BKN055,0.00,VWS V14.00,2013-08-28 12:51:00,
2013-08-28 09:00:00,74.8,73.9,29.93,SW,217,2.0,4.0,97,0.00,,BKN055,0.00,VWS V14.00,2013-08-28 13:00:00,
2013-08-28 09:01:00,76.7,74.8,29.92,SSW,211,0.0,5.0,94,0.00,,BKN055,0.00,VWS V14.00,2013-08-28 13:01:00,
2013-08-28 09:10:00,74.9,73.7,29.92,West,268,0.0,3.0,96,0.00,,BKN055,0.00,VWS V14.00,2013-08-28 13:10:00,
2013-08-28 09:11:00,77.4,74.6,29.92,WSW,258,2.0,7.0,91,0.00,,BKN055,0.00,VWS V14.00,2013-08-28 13:11:00,
2013-08-28 09:20:00,75.2,74.0,29.92,SW,221,6.0,9.0,96,0.00,,BKN055,0.00,VWS V14.00,2013-08-28 13:20:00,
2013-08-28 09:21:00,78.2,75.4,29.92,SW,230,0.0,9.0,91,0.00,,BKN055,0.00,VWS V14.00,2013-08-28 13:21:00,
2013-08-28 09:30:00,75.5,74.3,29.93,WSW,258,0.0,6.0,96,0.00,,BKN055,0.00,VWS V14.00,2013-08-28 13:30:00,
2013-08-28 09:31:00,78.7,74.5,29.91,WSW,256,3.0,9.0,87,0.00,,BKN055,0.00,VWS V14.00,2013-08-28 13:31:00,
2013-08-28 09:40:00,75.9,74.7,29.92,WSW,248,0.0,5.0,96,0.00,,BKN055,0.00,VWS V14.00,2013-08-28 13:40:00,
2013-08-28 09:41:00,79.0,74.5,29.91,West,276,0.0,7.0,86,0.00,,BKN055,0.00,VWS V14.00,2013-08-28 13:41:00,
2013-08-28 09:50:00,76.3,74.4,29.92,South,169,0.0,10.0,94,0.00,,BKN055,0.00,VWS V14.00,2013-08-28 13:50:00,
2013-08-28 09:51:00,79.6,75.4,29.92,West,277,0.0,3.0,87,0.00,,BKN055,0.00,VWS V14.00,2013-08-28 13:51:00,
2013-08-28 10:00:00,76.7,74.8,29.92,SSW,211,0.0,5.0,94,0.00,,BKN055,0.00,VWS V14.00,2013-08-28 14:00:00,
2013-08-28 10:01:00,80.3,75.0,29.92,NW,315,0.0,12.0,84,0.00,,BKN055,0.00,VWS V14.00,2013-08-28 14:01:00,
2013-08-28 10:10:00,77.4,74.6,29.92,WSW,258,2.0,7.0,91,0.00,,BKN055,0.00,VWS V14.00,2013-08-28 14:10:00,
2013-08-28 10:11:00,80.7,75.4,29.91,WNW,300,4.0,8.0,84,0.00,,BKN055,0.00,VWS V14.00,2013-08-28 14:11:00,
2013-08-28 10:20:00,78.2,75.4,29.92,SW,230,0.0,9.0,91,0.00,,BKN055,0.00,VWS V14.00,2013-08-28 14:20:00,
2013-08-28 10:21:00,80.9,75.3,29.91,West,267,0.0,8.0,83,0.00,,BKN055,0.00,VWS V14.00,2013-08-28 14:21:00,
2013-08-28 10:30:00,78.7,74.5,29.91,WSW,256,3.0,9.0,87,0.00,,BKN055,0.00,VWS V14.00,2013-08-28 14:30:00,
2013-08-28 10:31:00,81.2,75.2,29.91,WNW,297,4.0,7.0,82,0.00,,BKN055,0.00,VWS V14.00,2013-08-28 14:31:00,
2013-08-28 10:40:00,79.0,74.5,29.91,West,276,0.0,7.0,86,0.00,,BKN055,0.00,VWS V14.00,2013-08-28 14:40:00,
2013-08-28 10:41:00,81.7,75.3,29.91,WSW,242,4.0,6.0,81,0.00,,BKN055,0.00,VWS V14.00,2013-08-28 14:41:00,
2013-08-28 10:50:00,79.6,75.4,29.92,West,277,0.0,3.0,87,0.00,,BKN055,0.00,VWS V14.00,2013-08-28 14:50:00,
2013-08-28 10:51:00,82.4,76.0,29.91,SSW,192,0.0,6.0,81,0.00,,BKN055,0.00,VWS V14.00,2013-08-28 14:51:00,
2013-08-28 11:00:00,80.3,75.0,29.92,NW,315,0.0,12.0,84,0.00,,BKN055,0.00,VWS V14.00,2013-08-28 15:00:00,
2013-08-28 11:01:00,83.1,75.9,29.91,West,279,4.0,9.0,79,0.00,,BKN055,0.00,VWS V14.00,2013-08-28 15:01:00,
2013-08-28 11:10:00,80.7,75.4,29.91,WNW,300,4.0,8.0,84,0.00,,BKN055,0.00,VWS V14.00,2013-08-28 15:10:00,
2013-08-28 11:11:00,83.9,76.3,29.91,West,268,1.0,8.0,78,0.00,,BKN055,0.00,VWS V14.00,2013-08-28 15:11:00,
2013-08-28 11:20:00,80.9,75.3,29.91,West,267,0.0,8.0,83,0.00,,BKN055,0.00,VWS V14.00,2013-08-28 15:20:00,
2013-08-28 11:21:00,84.7,75.9,29.91,SE,146,4.0,9.0,75,0.00,,BKN055,0.00,VWS V14.00,2013-08-28 15:21:00,
2013-08-28 11:30:00,81.2,75.2,29.91,WNW,297,4.0,7.0,82,0.00,,BKN055,0.00,VWS V14.00,2013-08-28 15:30:00,
2013-08-28 11:31:00,85.9,76.7,29.91,SSW,198,2.0,9.0,74,0.00,,BKN055,0.00,VWS V14.00,2013-08-28 15:31:00,
2013-08-28 11:40:00,81.7,75.3,29.91,WSW,242,4.0,6.0,81,0.00,,BKN055,0.00,VWS V14.00,2013-08-28 15:40:00,
2013-08-28 11:41:00,86.2,76.1,29.90,WSW,250,0.0,10.0,72,0.00,,BKN055,0.00,VWS V14.00,2013-08-28 15:41:00,
2013-08-28 11:50:00,82.4,76.0,29.91,SSW,192,0.0,6.0,81,0.00,,BKN055,0.00,VWS V14.00,2013-08-28 15:50:00,
2013-08-28 11:51:00,86.7,77.0,29.90,WSW,241,0.0,6.0,73,0.00,,BKN055,0.00,VWS V14.00,2013-08-28 15:51:00,
2013-08-28 12:00:00,83.1,75.9,29.91,West,279,4.0,9.0,79,0.00,,BKN055,0.00,VWS V14.00,2013-08-28 16:00:00,
2013-08-28 12:01:00,86.8,77.1,29.91,South,173,6.0,7.0,73,0.00,,BKN055,0.00,VWS V14.00,2013-08-28 16:01:00,
2013-08-28 12:10:00,83.9,76.3,29.91,West,268,1.0,8.0,78,0.00,,BKN055,0.00,VWS V14.00,2013-08-28 16:10:00,
2013-08-28 12:11:00,86.6,76.1,29.91,WNW,284,0.0,9.0,71,0.00,,BKN055,0.00,VWS V14.00,2013-08-28 16:11:00,
2013-08-28 12:20:00,84.7,75.9,29.91,SE,146,4.0,9.0,75,0.00,,BKN055,0.00,VWS V14.00,2013-08-28 16:20:00,
2013-08-28 12:21:00,87.3,77.2,29.90,WNW,285,0.0,10.0,72,0.00,,BKN055,0.00,VWS V14.00,2013-08-28 16:21:00,
2013-08-28 12:30:00,85.9,76.7,29.91,SSW,198,2.0,9.0,74,0.00,,BKN055,0.00,VWS V14.00,2013-08-28 16:30:00,
2013-08-28 12:31:00,88.5,76.6,29.90,WNW,283,0.0,11.0,68,0.00,,BKN055,0.00,VWS V14.00,2013-08-28 16:31:00,
2013-08-28 12:40:00,86.2,76.1,29.90,WSW,250,0.0,10.0,72,0.00,,BKN055,0.00,VWS V14.00,2013-08-28 16:40:00,
2013-08-28 12:41:00,88.9,76.1,29.90,WSW,248,0.0,12.0,66,0.00,,BKN055,0.00,VWS V14.00,2013-08-28 16:41:00,
2013-08-28 12:50:00,86.7,77.0,29.90,WSW,241,0.0,6.0,73,0.00,,BKN055,0.00,VWS V14.00,2013-08-28 16:50:00,
2013-08-28 12:51:00,88.8,76.0,29.90,SW,236,3.0,9.0,66,0.00,,BKN055,0.00,VWS V14.00,2013-08-28 16:51:00,
2013-08-28 13:00:00,86.8,77.1,29.91,South,173,6.0,7.0,73,0.00,,BKN055,0.00,VWS V14.00,2013-08-28 17:00:00,
2013-08-28 13:01:00,89.1,75.8,29.90,West,264,0.0,12.0,65,0.00,,BKN055,0.00,VWS V14.00,2013-08-28 17:01:00,
2013-08-28 13:10:00,86.6,76.1,29.91,WNW,284,0.0,9.0,71,0.00,,BKN055,0.00,VWS V14.00,2013-08-28 17:10:00,
2013-08-28 13:11:00,89.6,75.8,29.89,SW,230,0.0,13.0,64,0.00,,BKN055,0.00,VWS V14.00,2013-08-28 17:11:00,
2013-08-28 13:20:00,87.3,77.2,29.90,WNW,285,0.0,10.0,72,0.00,,BKN055,0.00,VWS V14.00,2013-08-28 17:20:00,
2013-08-28 13:21:00,90.3,76.5,29.89,West,265,5.0,11.0,64,0.00,,BKN055,0.00,VWS V14.00,2013-08-28 17:21:00,
2013-08-28 13:30:00,88.5,76.6,29.90,WNW,283,0.0,11.0,68,0.00,,BKN055,0.00,VWS V14.00,2013-08-28 17:30:00,
2013-08-28 13:31:00,90.5,75.7,29.88,West,273,4.0,14.0,62,0.00,,BKN055,0.00,VWS V14.00,2013-08-28 17:31:00,
2013-08-28 13:40:00,88.9,76.1,29.90,WSW,248,0.0,12.0,66,0.00,,BKN055,0.00,VWS V14.00,2013-08-28 17:40:00,
2013-08-28 13:41:00,90.8,75.5,29.88,WNW,285,4.0,13.0,61,0.00,,BKN055,0.00,VWS V14.00,2013-08-28 17:41:00,
2013-08-28 13:50:00,88.8,76.0,29.90,SW,236,3.0,9.0,66,0.00,,BKN055,0.00,VWS V14.00,2013-08-28 17:50:00,
2013-08-28 13:51:00,90.9,76.6,29.88,NW,314,0.0,11.0,63,0.00,,BKN055,0.00,VWS V14.00,2013-08-28 17:51:00,
2013-08-28 14:00:00,89.1,75.8,29.90,West,264,0.0,12.0,65,0.00,,BKN055,0.00,VWS V14.00,2013-08-28 18:00:00,
2013-08-28 14:01:00,90.7,75.9,29.89,SW,227,1.0,12.0,62,0.00,,BKN055,0.00,VWS V14.00,2013-08-28 18:01:00,
2013-08-28 14:10:00,89.6,75.8,29.89,SW,230,0.0,13.0,64,0.00,,BKN055,0.00,VWS V14.00,2013-08-28 18:10:00,
2013-08-28 14:11:00,91.1,76.8,29.89,WNW,283,0.0,5.0,63,0.00,,BKN055,0.00,VWS V14.00,2013-08-28 18:11:00,
2013-08-28 14:20:00,90.3,76.5,29.89,West,265,5.0,11.0,64,0.00,,BKN055,0.00,VWS V14.00,2013-08-28 18:20:00,
2013-08-28 14:21:00,91.8,76.4,29.89,NW,306,7.0,10.0,61,0.00,,BKN055,0.00,VWS V14.00,2013-08-28 18:21:00,
2013-08-28 14:30:00,90.5,75.7,29.88,West,273,4.0,14.0,62,0.00,,BKN055,0.00,VWS V14.00,2013-08-28 18:30:00,
2013-08-28 14:31:00,91.3,76.5,29.89,NNW,329,3.0,14.0,62,0.00,,BKN055,0.00,VWS V14.00,2013-08-28 18:31:00,
2013-08-28 14:40:00,90.8,75.5,29.88,WNW,285,4.0,13.0,61,0.00,,BKN055,0.00,VWS V14.00,2013-08-28 18:40:00,
2013-08-28 14:41:00,91.6,76.2,29.88,West,265,10.0,12.0,61,0.00,,BKN055,0.00,VWS V14.00,2013-08-28 18:41:00,
2013-08-28 14:50:00,90.9,76.6,29.88,NW,314,0.0,11.0,63,0.00,,BKN055,0.00,VWS V14.00,2013-08-28 18:50:00,
2013-08-28 14:51:00,92.0,76.1,29.88,WSW,249,6.0,12.0,60,0.00,,BKN055,0.00,VWS V14.00,2013-08-28 18:51:00,
2013-08-28 15:00:00,90.7,75.9,29.89,SW,227,1.0,12.0,62,0.00,,BKN055,0.00,VWS V14.00,2013-08-28 19:00:00,
2013-08-28 15:01:00,92.2,76.3,29.88,SSW,196,5.0,11.0,60,0.00,,BKN055,0.00,VWS V14.00,2013-08-28 19:01:00,
2013-08-28 15:10:00,91.1,76.8,29.89,WNW,283,0.0,5.0,63,0.00,,BKN055,0.00,VWS V14.00,2013-08-28 19:10:00,
2013-08-28 15:11:00,92.4,76.5,29.87,WSW,252,6.0,12.0,60,0.00,,BKN055,0.00,VWS V14.00,2013-08-28 19:11:00,
2013-08-28 15:20:00,91.8,76.4,29.89,NW,306,7.0,10.0,61,0.00,,BKN055,0.00,VWS V14.00,2013-08-28 19:20:00,
2013-08-28 15:21:00,93.0,76.6,29.87,West,264,0.0,12.0,59,0.00,,BKN055,0.00,VWS V14.00,2013-08-28 19:21:00,
2013-08-28 15:30:00,91.3,76.5,29.89,NNW,329,3.0,14.0,62,0.00,,BKN055,0.00,VWS V14.00,2013-08-28 19:30:00,
2013-08-28 15:31:00,92.9,77.5,29.87,North,350,0.0,10.0,61,0.00,,BKN055,0.00,VWS V14.00,2013-08-28 19:31:00,
2013-08-28 15:40:00,91.6,76.2,29.88,West,265,10.0,12.0,61,0.00,,BKN055,0.00,VWS V14.00,2013-08-28 19:40:00,
2013-08-28 15:41:00,93.3,74.7,29.87,WSW,241,4.0,14.0,55,0.00,,BKN055,0.00,VWS V14.00,2013-08-28 19:41:00,
2013-08-28 15:50:00,92.0,76.1,29.88,WSW,249,6.0,12.0,60,0.00,,BKN055,0.00,VWS V14.00,2013-08-28 19:50:00,
2013-08-28 15:51:00,94.0,75.9,29.86,West,273,3.0,12.0,56,0.00,,BKN055,0.00,VWS V14.00,2013-08-28 19:51:00,
2013-08-28 16:00:00,92.2,76.3,29.88,SSW,196,5.0,11.0,60,0.00,,BKN055,0.00,VWS V14.00,2013-08-28 20:00:00,
2013-08-28 16:01:00,93.7,74.6,29.86,SSE,152,6.0,15.0,54,0.00,,BKN055,0.00,VWS V14.00,2013-08-28 20:01:00,
2013-08-28 16:10:00,92.4,76.5,29.87,WSW,252,6.0,12.0,60,0.00,,BKN055,0.00,VWS V14.00,2013-08-28 20:10:00,
2013-08-28 16:11:00,93.8,74.1,29.86,WNW,290,0.0,17.0,53,0.00,,BKN055,0.00,VWS V14.00,2013-08-28 20:11:00,
2013-08-28 16:20:00,93.0,76.6,29.87,West,264,0.0,12.0,59,0.00,,BKN055,0.00,VWS V14.00,2013-08-28 20:20:00,
2013-08-28 16:21:00,93.9,75.3,29.86,WNW,288,0.0,13.0,55,0.00,,BKN055,0.00,VWS V14.00,2013-08-28 20:21:00,
2013-08-28 16:30:00,92.9,77.5,29.87,North,350,0.0,10.0,61,0.00,,BKN055,0.00,VWS V14.00,2013-08-28 20:30:00,
2013-08-28 16:31:00,94.2,76.1,29.85,WSW,242,4.0,12.0,56,0.00,,BKN055,0.00,VWS V14.00,2013-08-28 20:31:00,
2013-08-28 16:40:00,93.3,74.7,29.87,WSW,241,4.0,14.0,55,0.00,,BKN055,0.00,VWS V14.00,2013-08-28 20:40:00,
2013-08-28 16:41:00,94.5,74.7,29.85,SSW,213,4.0,10.0,53,0.00,,BKN055,0.00,VWS V14.00,2013-08-28 20:41:00,
2013-08-28 16:50:00,94.0,75.9,29.86,West,273,3.0,12.0,56,0.00,,BKN055,0.00,VWS V14.00,2013-08-28 20:50:00,
2013-08-28 16:51:00,94.3,74.6,29.85,West,278,7.0,12.0,53,0.00,,BKN055,0.00,VWS V14.00,2013-08-28 20:51:00,
2013-08-28 17:00:00,93.7,74.6,29.86,SSE,152,6.0,15.0,54,0.00,,BKN055,0.00,VWS V14.00,2013-08-28 21:00:00,
2013-08-28 17:01:00,94.2,76.1,29.85,SW,228,3.0,12.0,56,0.00,,BKN055,0.00,VWS V14.00,2013-08-28 21:01:00,
2013-08-28 17:10:00,93.8,74.1,29.86,WNW,290,0.0,17.0,53,0.00,,BKN055,0.00,VWS V14.00,2013-08-28 21:10:00,
2013-08-28 17:11:00,94.3,75.1,29.85,WSW,240,0.0,12.0,54,0.00,,BKN055,0.00,VWS V14.00,2013-08-28 21:11:00,
2013-08-28 17:20:00,93.9,75.3,29.86,WNW,288,0.0,13.0,55,0.00,,BKN055,0.00,VWS V14.00,2013-08-28 21:20:00,
2013-08-28 17:21:00,93.9,75.3,29.85,SSW,211,0.0,14.0,55,0.00,,BKN055,0.00,VWS V14.00,2013-08-28 21:21:00,
2013-08-28 17:30:00,94.2,76.1,29.85,WSW,242,4.0,12.0,56,0.00,,BKN055,0.00,VWS V14.00,2013-08-28 21:30:00,
2013-08-28 17:31:00,93.7,75.6,29.85,WSW,253,0.0,10.0,56,0.00,,BKN055,0.00,VWS V14.00,2013-08-28 21:31:00,
2013-08-28 17:40:00,94.5,74.7,29.85,SSW,213,4.0,10.0,53,0.00,,BKN055,0.00,VWS V14.00,2013-08-28 21:40:00,
2013-08-28 17:41:00,93.6,74.5,29.85,WSW,251,10.0,12.0,54,0.00,,BKN055,0.00,VWS V14.00,2013-08-28 21:41:00,
2013-08-28 17:50:00,94.3,74.6,29.85,West,278,7.0,12.0,53,0.00,,BKN055,0.00,VWS V14.00,2013-08-28 21:50:00,
2013-08-28 17:51:00,93.2,74.6,29.84,WSW,240,2.0,13.0,55,0.00,,BKN055,0.00,VWS V14.00,2013-08-28 21:51:00,
2013-08-28 18:00:00,94.2,76.1,29.85,SW,228,3.0,12.0,56,0.00,,BKN055,0.00,VWS V14.00,2013-08-28 22:00:00,
2013-08-28 18:01:00,92.9,74.4,29.84,WSW,244,4.0,7.0,55,0.00,,BKN055,0.00,VWS V14.00,2013-08-28 22:01:00,
2013-08-28 18:10:00,94.3,75.1,29.85,WSW,240,0.0,12.0,54,0.00,,BKN055,0.00,VWS V14.00,2013-08-28 22:10:00,
2013-08-28 18:11:00,93.1,74.6,29.84,West,275,2.0,11.0,55,0.00,,BKN055,0.00,VWS V14.00,2013-08-28 22:11:00,
2013-08-28 18:20:00,93.9,75.3,29.85,SSW,211,0.0,14.0,55,0.00,,BKN055,0.00,VWS V14.00,2013-08-28 22:20:00,
2013-08-28 18:21:00,93.2,75.2,29.84,WSW,254,1.0,11.0,56,0.00,,BKN055,0.00,VWS V14.00,2013-08-28 22:21:00,
2013-08-28 18:30:00,93.7,75.6,29.85,WSW,253,0.0,10.0,56,0.00,,BKN055,0.00,VWS V14.00,2013-08-28 22:30:00,
2013-08-28 18:31:00,93.1,75.6,29.84,SW,234,0.0,10.0,57,0.00,,BKN055,0.00,VWS V14.00,2013-08-28 22:31:00,
2013-08-28 18:40:00,93.6,74.5,29.85,WSW,251,10.0,12.0,54,0.00,,BKN055,0.00,VWS V14.00,2013-08-28 22:40:00,
2013-08-28 18:41:00,92.6,75.2,29.84,WSW,256,5.0,12.0,57,0.00,,BKN055,0.00,VWS V14.00,2013-08-28 22:41:00,
2013-08-28 18:50:00,93.2,74.6,29.84,WSW,240,2.0,13.0,55,0.00,,BKN055,0.00,VWS V14.00,2013-08-28 22:50:00,
2013-08-28 18:51:00,92.2,74.8,29.84,WNW,286,0.0,10.0,57,0.00,,BKN055,0.00,VWS V14.00,2013-08-28 22:51:00,
2013-08-28 19:00:00,92.9,74.4,29.84,WSW,244,4.0,7.0,55,0.00,,BKN055,0.00,VWS V14.00,2013-08-28 23:00:00,
2013-08-28 19:01:00,91.8,74.9,29.83,WSW,249,0.0,7.0,58,0.00,,BKN055,0.00,VWS V14.00,2013-08-28 23:01:00,
2013-08-28 19:10:00,93.1,74.6,29.84,West,275,2.0,11.0,55,0.00,,BKN055,0.00,VWS V14.00,2013-08-28 23:10:00,
2013-08-28 19:11:00,91.5,75.2,29.84,West,279,0.0,3.0,59,0.00,,BKN055,0.00,VWS V14.00,2013-08-28 23:11:00,
2013-08-28 19:20:00,93.2,75.2,29.84,WSW,254,1.0,11.0,56,0.00,,BKN055,0.00,VWS V14.00,2013-08-28 23:20:00,
2013-08-28 19:21:00,91.0,75.2,29.84,WSW,237,0.0,7.0,60,0.00,,BKN055,0.00,VWS V14.00,2013-08-28 23:21:00,
2013-08-28 19:30:00,93.1,75.6,29.84,SW,234,0.0,10.0,57,0.00,,BKN055,0.00,VWS V14.00,2013-08-28 23:30:00,
2013-08-28 19:31:00,90.6,75.3,29.84,West,269,0.0,5.0,61,0.00,,BKN055,0.00,VWS V14.00,2013-08-28 23:31:00,
2013-08-28 19:40:00,92.6,75.2,29.84,WSW,256,5.0,12.0,57,0.00,,BKN055,0.00,VWS V14.00,2013-08-28 23:40:00,
2013-08-28 19:41:00,90.2,75.4,29.84,West,277,0.0,7.0,62,0.00,,BKN055,0.00,VWS V14.00,2013-08-28 23:41:00,
2013-08-28 19:50:00,92.2,74.8,29.84,WNW,286,0.0,10.0,57,0.00,,BKN055,0.00,VWS V14.00,2013-08-28 23:50:00,
2013-08-28 19:51:00,89.6,74.9,29.84,West,269,0.0,1.0,62,0.00,,BKN055,0.00,VWS V14.00,2013-08-28 23:51:00,
2013-08-28 20:00:00,91.8,74.9,29.83,WSW,249,0.0,7.0,58,0.00,,BKN055,0.00,VWS V14.00,2013-08-29 00:00:00,
2013-08-28 20:01:00,89.1,75.8,29.85,West,280,0.0,0.0,65,0.00,,BKN055,0.00,VWS V14.00,2013-08-29 00:01:00,
2013-08-28 20:10:00,91.5,75.2,29.84,West,279,0.0,3.0,59,0.00,,BKN055,0.00,VWS V14.00,2013-08-29 00:10:00,
2013-08-28 20:11:00,88.4,74.7,29.84,SW,233,0.0,5.0,64,0.00,,BKN055,0.00,VWS V14.00,2013-08-29 00:11:00,
2013-08-28 20:20:00,91.0,75.2,29.84,WSW,237,0.0,7.0,60,0.00,,BKN055,0.00,VWS V14.00,2013-08-29 00:20:00,
2013-08-28 20:21:00,88.0,75.2,29.85,SW,230,0.0,1.0,66,0.00,,BKN055,0.00,VWS V14.00,2013-08-29 00:21:00,
2013-08-28 20:30:00,90.6,75.3,29.84,West,269,0.0,5.0,61,0.00,,BKN055,0.00,VWS V14.00,2013-08-29 00:30:00,
2013-08-28 20:31:00,87.3,75.0,29.85,SW,231,0.0,0.0,67,0.00,,BKN055,0.00,VWS V14.00,2013-08-29 00:31:00,
2013-08-28 20:40:00,90.2,75.4,29.84,West,277,0.0,7.0,62,0.00,,BKN055,0.00,VWS V14.00,2013-08-29 00:40:00,
2013-08-28 20:41:00,86.9,75.5,29.86,SW,231,0.0,0.0,69,0.00,,BKN055,0.00,VWS V14.00,2013-08-29 00:41:00,
2013-08-28 20:50:00,89.6,74.9,29.84,West,269,0.0,1.0,62,0.00,,BKN055,0.00,VWS V14.00,2013-08-29 00:50:00,
2013-08-28 20:51:00,85.7,76.5,29.87,North,355,5.0,9.0,74,0.00,,BKN055,0.00,VWS V14.00,2013-08-29 00:51:00,
2013-08-28 21:00:00,89.1,75.8,29.85,West,280,0.0,0.0,65,0.00,,BKN055,0.00,VWS V14.00,2013-08-29 01:00:00,
2013-08-28 21:01:00,83.9,76.7,29.88,North,5,0.0,5.0,79,0.00,,BKN055,0.00,VWS V14.00,2013-08-29 01:01:00,
2013-08-28 21:10:00,88.4,74.7,29.84,SW,233,0.0,5.0,64,0.00,,BKN055,0.00,VWS V14.00,2013-08-29 01:10:00,
2013-08-28 21:11:00,82.6,76.6,29.88,NNW,338,0.0,1.0,82,0.00,,BKN055,0.00,VWS V14.00,2013-08-29 01:11:00,
2013-08-28 21:20:00,88.0,75.2,29.85,SW,230,0.0,1.0,66,0.00,,BKN055,0.00,VWS V14.00,2013-08-29 01:20:00,
2013-08-28 21:21:00,81.8,76.1,29.88,NNW,347,0.0,1.0,83,0.00,,BKN055,0.00,VWS V14.00,2013-08-29 01:21:00,
2013-08-28 21:30:00,87.3,75.0,29.85,SW,231,0.0,0.0,67,0.00,,BKN055,0.00,VWS V14.00,2013-08-29 01:30:00,
2013-08-28 21:31:00,81.4,76.5,29.89,NNW,346,0.0,0.0,85,0.00,,BKN055,0.00,VWS V14.00,2013-08-29 01:31:00,
2013-08-28 21:40:00,86.9,75.5,29.86,SW,231,0.0,0.0,69,0.00,,BKN055,0.00,VWS V14.00,2013-08-29 01:40:00,
2013-08-28 21:41:00,80.8,76.9,29.89,NNW,347,0.0,0.0,88,0.00,,BKN055,0.00,VWS V14.00,2013-08-29 01:41:00,
2013-08-28 21:50:00,85.7,76.5,29.87,North,355,5.0,9.0,74,0.00,,BKN055,0.00,VWS V14.00,2013-08-29 01:50:00,
2013-08-28 21:51:00,80.3,76.8,29.89,NNW,346,0.0,0.0,89,0.00,,BKN055,0.00,VWS V14.00,2013-08-29 01:51:00,
2013-08-28 22:00:00,83.9,76.7,29.88,North,5,0.0,5.0,79,0.00,,BKN055,0.00,VWS V14.00,2013-08-29 02:00:00,
2013-08-28 22:01:00,79.7,76.8,29.89,NNW,347,0.0,0.0,91,0.00,,BKN055,0.00,VWS V14.00,2013-08-29 02:01:00,
2013-08-28 22:10:00,82.6,76.6,29.88,NNW,338,0.0,1.0,82,0.00,,BKN055,0.00,VWS V14.00,2013-08-29 02:10:00,
2013-08-28 22:11:00,79.3,76.4,29.89,NNW,346,0.0,0.0,91,0.00,,BKN055,0.00,VWS V14.00,2013-08-29 02:11:00,
2013-08-28 22:20:00,81.8,76.1,29.88,NNW,347,0.0,1.0,83,0.00,,BKN055,0.00,VWS V14.00,2013-08-29 02:20:00,
2013-08-28 22:21:00,79.2,76.3,29.90,NNW,347,0.0,0.0,91,0.00,,BKN055,0.00,VWS V14.00,2013-08-29 02:21:00,
2013-08-28 22:30:00,81.4,76.5,29.89,NNW,346,0.0,0.0,85,0.00,,BKN055,0.00,VWS V14.00,2013-08-29 02:30:00,
2013-08-28 22:31:00,79.2,76.3,29.90,NNW,347,0.0,0.0,91,0.00,,BKN055,0.00,VWS V14.00,2013-08-29 02:31:00,
2013-08-28 22:40:00,80.8,76.9,29.89,NNW,347,0.0,0.0,88,0.00,,BKN055,0.00,VWS V14.00,2013-08-29 02:40:00,
2013-08-28 22:41:00,79.1,76.6,29.90,NNW,347,0.0,0.0,92,0.00,,BKN055,0.00,VWS V14.00,2013-08-29 02:41:00,
2013-08-28 22:50:00,80.3,76.8,29.89,NNW,346,0.0,0.0,89,0.00,,BKN055,0.00,VWS V14.00,2013-08-29 02:50:00,
2013-08-28 22:51:00,79.1,76.6,29.90,NNW,346,0.0,0.0,92,0.00,,BKN055,0.00,VWS V14.00,2013-08-29 02:51:00,
2013-08-28 23:00:00,79.7,76.8,29.89,NNW,347,0.0,0.0,91,0.00,,BKN055,0.00,VWS V14.00,2013-08-29 03:00:00,
2013-08-28 23:01:00,78.9,76.4,29.90,NNW,346,0.0,1.0,92,0.00,,BKN055,0.00,VWS V14.00,2013-08-29 03:01:00,
2013-08-28 23:10:00,79.3,76.4,29.89,NNW,346,0.0,0.0,91,0.00,,BKN055,0.00,VWS V14.00,2013-08-29 03:10:00,
2013-08-28 23:11:00,78.7,76.5,29.90,NNW,346,0.0,0.0,93,0.00,,BKN055,0.00,VWS V14.00,2013-08-29 03:11:00,
2013-08-28 23:20:00,79.2,76.3,29.90,NNW,347,0.0,0.0,91,0.00,,BKN055,0.00,VWS V14.00,2013-08-29 03:20:00,
2013-08-28 23:21:00,78.7,76.5,29.90,NNW,347,0.0,1.0,93,0.00,,BKN055,0.00,VWS V14.00,2013-08-29 03:21:00,
2013-08-28 23:30:00,79.2,76.3,29.90,NNW,347,0.0,0.0,91,0.00,,BKN055,0.00,VWS V14.00,2013-08-29 03:30:00,
2013-08-28 23:31:00,78.5,76.3,29.91,NNW,347,0.0,1.0,93,0.00,,BKN055,0.00,VWS V14.00,2013-08-29 03:31:00,
2013-08-28 23:40:00,79.1,76.6,29.90,NNW,347,0.0,0.0,92,0.00,,BKN055,0.00,VWS V14.00,2013-08-29 03:40:00,
2013-08-28 23:41:00,78.6,76.4,29.91,NNW,346,0.0,0.0,93,0.00,,BKN055,0.00,VWS V14.00,2013-08-29 03:41:00,
2013-08-28 23:50:00,79.1,76.6,29.90,NNW,346,0.0,0.0,92,0.00,,BKN055,0.00,VWS V14.00,2013-08-29 03:50:00,
2013-08-28 23:51:00,78.7,76.2,29.90,NNW,347,0.0,0.0,92,0.00,,BKN055,0.00,VWS V14.00,2013-08-29 03:51:00,